createdAt,value
2022-08-28T00:01:57.834Z,20.67
2022-08-28T00:04:24.479Z,20.67
2022-08-28T00:06:51.232Z,20.58
2022-08-28T00:09:17.973Z,20.62
2022-08-28T00:11:44.606Z,20.95
2022-08-28T00:14:11.502Z,20.95
2022-08-28T00:16:38.665Z,20.97
2022-08-28T00:19:05.994Z,21.07
2022-08-28T00:21:33.440Z,21.12
2022-08-28T00:24:00.833Z,21.14
2022-08-28T00:26:46.384Z,21.13
2022-08-28T00:29:13.039Z,21.05
2022-08-28T00:31:39.781Z,21.15
2022-08-28T00:34:07.983Z,21.05
2022-08-28T00:36:34.712Z,21.03
2022-08-28T00:39:01.416Z,20.94
2022-08-28T00:41:31.258Z,20.97
2022-08-28T00:44:23.827Z,21.03
2022-08-28T00:46:52.585Z,20.99
2022-08-28T00:49:23.027Z,20.99
2022-08-28T00:52:08.010Z,20.97
2022-08-28T00:54:59.974Z,21.00
2022-08-28T00:57:36.843Z,20.85
2022-08-28T01:00:10.754Z,20.80
2022-08-28T01:02:37.543Z,20.82
2022-08-28T01:05:08.886Z,20.89
2022-08-28T01:07:39.109Z,20.88
2022-08-28T01:10:08.570Z,20.94
2022-08-28T01:12:35.751Z,20.60
2022-08-28T01:15:09.343Z,20.84
2022-08-28T01:17:36.649Z,20.80
2022-08-28T01:20:13.901Z,20.70
2022-08-28T01:22:54.853Z,20.76
2022-08-28T01:25:23.466Z,20.73
2022-08-28T01:27:51.662Z,20.73
2022-08-28T01:30:22.135Z,20.73
2022-08-28T01:32:52.205Z,20.33
2022-08-28T01:35:22.939Z,20.24
2022-08-28T01:37:49.938Z,20.27
2022-08-28T01:40:23.013Z,20.42
2022-08-28T01:42:50.454Z,20.60
2022-08-28T01:45:19.134Z,20.60
2022-08-28T01:47:46.763Z,20.51
2022-08-28T01:50:16.090Z,20.43
2022-08-28T01:52:43.004Z,20.22
2022-08-28T01:55:10.916Z,20.31
2022-08-28T01:57:46.290Z,20.41
2022-08-28T02:00:14.450Z,20.63
2022-08-28T02:02:41.070Z,20.59
2022-08-28T02:05:09.161Z,20.67
2022-08-28T02:07:36.210Z,20.77
2022-08-28T02:10:03.366Z,20.79
2022-08-28T02:12:30.313Z,20.90
2022-08-28T02:14:56.902Z,20.94
2022-08-28T02:17:23.824Z,20.99
2022-08-28T02:19:51.779Z,21.20
2022-08-28T02:22:18.389Z,21.26
2022-08-28T02:24:45.382Z,21.25
2022-08-28T02:27:11.966Z,21.19
2022-08-28T02:29:39.301Z,21.14
2022-08-28T02:32:06.202Z,21.17
2022-08-28T02:34:34.549Z,21.20
2022-08-28T02:37:01.161Z,21.08
2022-08-28T02:39:27.990Z,21.09
2022-08-28T02:41:54.561Z,21.09
2022-08-28T02:44:21.326Z,21.15
2022-08-28T02:46:47.911Z,21.29
2022-08-28T02:49:14.481Z,21.33
2022-08-28T02:51:41.081Z,21.44
2022-08-28T02:54:07.663Z,21.55
2022-08-28T02:56:34.436Z,21.51
2022-08-28T02:59:01.102Z,21.55
2022-08-28T03:01:28.150Z,21.44
2022-08-28T03:03:54.801Z,21.56
2022-08-28T03:06:22.962Z,21.60
2022-08-28T03:08:49.527Z,21.51
2022-08-28T03:11:16.167Z,21.56
2022-08-28T03:13:42.874Z,21.42
2022-08-28T03:16:10.044Z,21.28
2022-08-28T03:18:37.076Z,20.98
2022-08-28T03:21:03.812Z,20.84
2022-08-28T03:23:32.077Z,20.48
2022-08-28T03:26:10.266Z,20.32
2022-08-28T03:28:44.599Z,20.24
2022-08-28T03:31:14.276Z,20.23
2022-08-28T03:33:42.766Z,20.21
2022-08-28T03:36:11.722Z,20.50
2022-08-28T03:38:38.481Z,20.58
2022-08-28T03:41:10.572Z,20.67
2022-08-28T03:43:37.342Z,20.45
2022-08-28T03:46:05.832Z,20.31
2022-08-28T03:48:36.298Z,20.28
2022-08-28T03:51:09.983Z,20.30
2022-08-28T03:53:37.216Z,20.27
2022-08-28T03:56:12.551Z,20.31
2022-08-28T03:58:40.749Z,20.31
2022-08-28T04:01:07.953Z,20.36
2022-08-28T04:03:35.379Z,20.53
2022-08-28T04:06:02.451Z,20.40
2022-08-28T04:08:29.477Z,20.48
2022-08-28T04:10:56.404Z,20.45
2022-08-28T04:13:23.471Z,20.51
2022-08-28T04:16:02.522Z,20.41
2022-08-28T04:18:32.953Z,20.14
2022-08-28T04:21:02.395Z,19.85
2022-08-28T04:23:29.713Z,20.02
2022-08-28T04:25:56.352Z,20.10
2022-08-28T04:28:23.699Z,19.93
2022-08-28T04:30:54.702Z,19.89
2022-08-28T04:33:26.726Z,19.94
2022-08-28T04:35:53.781Z,19.89
2022-08-28T04:38:20.861Z,20.04
2022-08-28T04:40:47.501Z,20.09
2022-08-28T04:43:14.555Z,20.25
2022-08-28T04:45:45.090Z,20.33
2022-08-28T04:48:13.775Z,20.25
2022-08-28T04:50:45.406Z,20.12
2022-08-28T04:53:12.311Z,20.16
2022-08-28T04:55:53.919Z,20.11
2022-08-28T04:58:23.812Z,20.02
2022-08-28T05:00:52.030Z,20.06
2022-08-28T05:03:18.684Z,20.07
2022-08-28T05:05:48.329Z,19.96
2022-08-28T05:08:16.398Z,20.22
2022-08-28T05:10:43.329Z,20.29
2022-08-28T05:13:11.328Z,20.34
2022-08-28T05:15:49.929Z,20.42
2022-08-28T05:18:18.207Z,20.32
2022-08-28T05:20:46.319Z,20.33
2022-08-28T05:23:14.829Z,20.18
2022-08-28T05:25:44.126Z,20.32
2022-08-28T05:28:12.459Z,20.46
2022-08-28T05:30:41.841Z,20.40
2022-08-28T05:33:09.509Z,20.19
2022-08-28T05:35:38.692Z,20.26
2022-08-28T05:38:06.569Z,20.34
2022-08-28T05:40:33.872Z,20.41
2022-08-28T05:43:00.489Z,20.58
2022-08-28T05:45:27.048Z,20.79
2022-08-28T05:47:54.025Z,20.90
2022-08-28T05:50:20.589Z,20.90
2022-08-28T05:52:47.498Z,20.91
2022-08-28T05:55:14.532Z,20.79
2022-08-28T05:57:41.879Z,20.88
2022-08-28T06:00:13.044Z,20.80
2022-08-28T06:02:40.633Z,20.79
2022-08-28T06:05:07.770Z,20.78
2022-08-28T06:07:35.057Z,20.60
2022-08-28T06:10:01.913Z,20.68
2022-08-28T06:12:28.507Z,20.49
2022-08-28T06:14:55.342Z,20.68
2022-08-28T06:17:23.934Z,20.74
2022-08-28T06:19:51.036Z,20.80
2022-08-28T06:22:18.520Z,20.95
2022-08-28T06:24:45.142Z,21.13
2022-08-28T06:27:11.734Z,21.18
2022-08-28T06:29:39.817Z,21.32
2022-08-28T06:32:06.529Z,21.90
2022-08-28T06:34:33.329Z,21.88
2022-08-28T06:37:00.737Z,22.04
2022-08-28T06:39:27.342Z,22.08
2022-08-28T06:41:53.947Z,21.97
2022-08-28T06:44:21.810Z,22.37
2022-08-28T06:46:50.710Z,21.83
2022-08-28T06:49:17.419Z,21.56
2022-08-28T06:51:44.053Z,21.55
2022-08-28T06:54:10.891Z,21.86
2022-08-28T06:56:38.435Z,21.70
2022-08-28T06:59:05.317Z,22.56
2022-08-28T07:01:35.015Z,22.71
2022-08-28T07:04:06.218Z,22.49
2022-08-28T07:06:39.618Z,22.36
2022-08-28T07:09:11.326Z,22.13
2022-08-28T07:11:39.385Z,22.07
2022-08-28T07:14:06.647Z,22.11
2022-08-28T07:16:38.312Z,22.05
2022-08-28T07:19:10.597Z,22.18
2022-08-28T07:21:39.441Z,21.97
2022-08-28T07:24:07.074Z,22.01
2022-08-28T07:26:35.630Z,22.21
2022-08-28T07:29:10.319Z,22.50
2022-08-28T07:31:44.118Z,22.39
2022-08-28T07:34:12.001Z,22.45
2022-08-28T07:36:39.532Z,22.66
2022-08-28T07:39:07.570Z,22.37
2022-08-28T07:41:36.350Z,22.33
2022-08-28T07:44:21.846Z,22.44
2022-08-28T07:46:48.478Z,22.69
2022-08-28T07:49:18.452Z,22.91
2022-08-28T07:51:46.704Z,23.03
2022-08-28T07:54:17.736Z,23.16
2022-08-28T07:56:45.239Z,23.58
2022-08-28T07:59:11.978Z,23.74
2022-08-28T08:01:43.020Z,23.83
2022-08-28T08:04:12.763Z,23.96
2022-08-28T08:06:41.329Z,23.89
2022-08-28T08:09:09.470Z,23.97
2022-08-28T08:11:36.273Z,24.04
2022-08-28T08:14:05.687Z,24.31
2022-08-28T08:16:38.878Z,24.28
2022-08-28T08:19:06.155Z,24.41
2022-08-28T08:21:32.777Z,24.69
2022-08-28T08:23:59.561Z,24.66
2022-08-28T08:26:28.251Z,24.85
2022-08-28T08:28:55.799Z,24.99
2022-08-28T08:31:28.382Z,25.61
2022-08-28T08:34:01.894Z,25.68
2022-08-28T08:36:29.770Z,25.50
2022-08-28T08:38:59.262Z,24.89
2022-08-28T08:41:48.136Z,25.66
2022-08-28T08:44:23.737Z,25.52
2022-08-28T08:47:14.597Z,25.26
2022-08-28T08:49:47.755Z,25.48
2022-08-28T08:52:17.381Z,24.96
2022-08-28T08:54:45.578Z,25.17
2022-08-28T08:57:14.093Z,25.32
2022-08-28T08:59:41.187Z,25.29
2022-08-28T09:02:14.273Z,25.00
2022-08-28T09:04:56.400Z,25.02
2022-08-28T09:07:26.500Z,25.34
2022-08-28T09:09:55.048Z,25.27
2022-08-28T09:12:27.381Z,25.41
2022-08-28T09:14:58.502Z,25.58
2022-08-28T09:17:30.203Z,25.95
2022-08-28T09:19:56.900Z,25.81
2022-08-28T09:22:23.578Z,26.06
2022-08-28T09:24:51.915Z,26.24
2022-08-28T09:27:28.127Z,26.44
2022-08-28T09:30:09.388Z,26.10
2022-08-28T09:32:43.592Z,26.17
2022-08-28T09:35:31.824Z,25.85
2022-08-28T09:38:18.886Z,26.38
2022-08-28T09:41:04.446Z,25.99
2022-08-28T09:43:33.514Z,25.88
2022-08-28T09:46:01.801Z,26.10
2022-08-28T09:48:37.606Z,26.27
2022-08-28T09:51:08.397Z,26.58
2022-08-28T09:54:03.072Z,26.76
2022-08-28T09:56:39.801Z,27.26
2022-08-28T09:59:09.729Z,27.19
2022-08-28T10:01:44.787Z,27.08
2022-08-28T10:04:11.923Z,27.43
2022-08-28T10:06:39.219Z,26.83
2022-08-28T10:09:32.178Z,27.27
2022-08-28T10:12:13.027Z,26.72
2022-08-28T10:15:10.159Z,26.83
2022-08-28T10:18:01.866Z,27.42
2022-08-28T10:20:39.582Z,27.00
2022-08-28T10:23:20.756Z,26.84
2022-08-28T10:25:56.558Z,26.85
2022-08-28T10:28:50.942Z,26.92
2022-08-28T10:31:28.433Z,27.56
2022-08-28T10:34:27.816Z,27.87
2022-08-28T10:37:06.410Z,27.07
2022-08-28T10:39:37.232Z,27.35
2022-08-28T10:42:05.570Z,27.85
2022-08-28T10:44:57.802Z,27.14
2022-08-28T10:47:28.502Z,27.16
2022-08-28T10:50:01.866Z,26.95
2022-08-28T10:52:39.058Z,26.84
2022-08-28T10:55:14.246Z,26.63
2022-08-28T10:57:44.689Z,26.99
2022-08-28T11:00:20.392Z,26.50
2022-08-28T11:02:52.742Z,26.25
2022-08-28T11:05:24.345Z,26.28
2022-08-28T11:07:54.821Z,26.14
2022-08-28T11:10:46.024Z,26.19
2022-08-28T11:13:13.136Z,26.50
2022-08-28T11:15:42.394Z,26.91
2022-08-28T11:18:15.756Z,26.86
2022-08-28T11:20:44.542Z,26.85
2022-08-28T11:23:20.153Z,27.00
2022-08-28T11:25:54.743Z,27.01
2022-08-28T11:28:24.275Z,26.93
2022-08-28T11:31:19.074Z,27.18
2022-08-28T11:33:56.146Z,27.50
2022-08-28T11:36:22.709Z,27.67
2022-08-28T11:38:51.984Z,27.61
2022-08-28T11:41:27.561Z,27.87
2022-08-28T11:44:09.595Z,27.68
2022-08-28T11:46:47.681Z,27.59
2022-08-28T11:49:26.567Z,27.87
2022-08-28T11:51:53.245Z,27.19
2022-08-28T11:54:22.756Z,26.91
2022-08-28T11:56:49.721Z,27.25
2022-08-28T11:59:34.891Z,27.13
2022-08-28T12:02:39.357Z,27.03
2022-08-28T12:05:32.323Z,27.49
2022-08-28T12:08:03.202Z,27.74
2022-08-28T12:10:34.554Z,28.44
2022-08-28T12:13:03.557Z,28.48
2022-08-28T12:15:30.288Z,28.59
2022-08-28T12:18:04.163Z,28.39
2022-08-28T12:20:41.436Z,27.91
2022-08-28T12:23:29.763Z,27.71
2022-08-28T12:26:26.886Z,27.75
2022-08-28T12:29:16.496Z,27.48
2022-08-28T12:32:12.438Z,27.08
2022-08-28T12:34:57.584Z,26.74
2022-08-28T12:37:52.799Z,26.64
2022-08-28T12:40:28.931Z,26.71
2022-08-28T12:43:10.540Z,26.56
2022-08-28T12:45:40.116Z,27.00
2022-08-28T12:48:25.827Z,27.04
2022-08-28T12:51:03.329Z,27.16
2022-08-28T12:53:39.016Z,27.00
2022-08-28T12:56:05.659Z,26.96
2022-08-28T12:58:35.147Z,26.78
2022-08-28T13:01:09.337Z,26.43
2022-08-28T13:03:44.960Z,26.22
2022-08-28T13:06:11.739Z,26.24
2022-08-28T13:08:38.394Z,26.18
2022-08-28T13:11:05.210Z,26.05
2022-08-28T13:13:43.665Z,26.36
2022-08-28T13:16:12.030Z,26.78
2022-08-28T13:18:41.474Z,26.87
2022-08-28T13:21:31.733Z,26.75
2022-08-28T13:24:01.969Z,26.79
2022-08-28T13:26:33.176Z,26.75
2022-08-28T13:29:01.723Z,26.74
2022-08-28T13:31:33.884Z,26.83
2022-08-28T13:34:08.665Z,27.01
2022-08-28T13:36:48.598Z,26.61
2022-08-28T13:39:17.158Z,26.51
2022-08-28T13:41:47.110Z,26.42
2022-08-28T13:44:32.259Z,26.01
2022-08-28T13:47:00.171Z,26.23
2022-08-28T13:49:28.068Z,26.00
2022-08-28T13:51:56.933Z,25.93
2022-08-28T13:54:24.373Z,25.87
2022-08-28T13:56:52.718Z,25.98
2022-08-28T13:59:20.039Z,25.70
2022-08-28T14:02:06.025Z,25.68
2022-08-28T14:04:32.743Z,25.61
2022-08-28T14:06:59.502Z,25.79
2022-08-28T14:09:27.117Z,25.46
2022-08-28T14:11:55.570Z,25.58
2022-08-28T14:14:22.543Z,25.50
2022-08-28T14:16:53.196Z,25.58
2022-08-28T14:19:20.045Z,25.54
2022-08-28T14:21:46.626Z,25.86
2022-08-28T14:24:13.305Z,26.12
2022-08-28T14:26:40.663Z,25.89
2022-08-28T14:29:09.625Z,26.07
2022-08-28T14:31:36.945Z,26.23
2022-08-28T14:34:05.123Z,25.91
2022-08-28T14:36:34.444Z,26.15
2022-08-28T14:39:06.074Z,26.18
2022-08-28T14:41:33.521Z,26.20
2022-08-28T14:44:00.397Z,25.67
2022-08-28T14:46:46.945Z,25.51
2022-08-28T14:49:15.859Z,25.51
2022-08-28T14:51:43.971Z,25.26
2022-08-28T14:54:12.398Z,25.50
2022-08-28T14:56:39.083Z,25.64
2022-08-28T14:59:11.164Z,25.78
2022-08-28T15:01:41.226Z,25.82
2022-08-28T15:04:11.462Z,25.62
2022-08-28T15:06:38.339Z,25.74
2022-08-28T15:09:05.430Z,25.47
2022-08-28T15:11:32.067Z,25.33
2022-08-28T15:13:58.810Z,25.36
2022-08-28T15:16:30.270Z,25.32
2022-08-28T15:18:58.939Z,25.07
2022-08-28T15:21:32.709Z,25.15
2022-08-28T15:24:01.309Z,25.34
2022-08-28T15:26:28.759Z,25.45
2022-08-28T15:28:58.173Z,25.44
2022-08-28T15:31:25.102Z,25.39
2022-08-28T15:33:52.341Z,25.33
2022-08-28T15:36:20.065Z,25.37
2022-08-28T15:39:05.121Z,25.38
2022-08-28T15:41:31.852Z,25.58
2022-08-28T15:44:01.406Z,25.87
2022-08-28T15:46:33.769Z,26.07
2022-08-28T15:49:02.621Z,25.68
2022-08-28T15:51:30.272Z,25.54
2022-08-28T15:53:56.928Z,25.61
2022-08-28T15:56:24.571Z,25.65
2022-08-28T15:58:52.038Z,25.44
2022-08-28T16:01:20.333Z,25.65
2022-08-28T16:03:46.989Z,25.61
2022-08-28T16:06:16.067Z,25.17
2022-08-28T16:08:43.741Z,25.09
2022-08-28T16:11:11.965Z,25.11
2022-08-28T16:13:38.749Z,24.90
2022-08-28T16:16:05.422Z,24.63
2022-08-28T16:18:32.055Z,24.64
2022-08-28T16:21:02.691Z,24.61
2022-08-28T16:23:31.217Z,24.47
2022-08-28T16:25:57.829Z,24.24
2022-08-28T16:28:24.469Z,24.05
2022-08-28T16:30:53.981Z,24.06
2022-08-28T16:33:22.211Z,23.79
2022-08-28T16:35:55.065Z,23.55
2022-08-28T16:38:22.756Z,23.48
2022-08-28T16:40:49.655Z,23.06
2022-08-28T16:43:16.446Z,22.89
2022-08-28T16:45:45.027Z,22.77
2022-08-28T16:48:12.944Z,22.64
2022-08-28T16:50:41.451Z,22.48
2022-08-28T16:53:08.594Z,22.39
2022-08-28T16:55:35.464Z,22.35
2022-08-28T16:58:02.063Z,22.31
2022-08-28T17:00:28.748Z,22.19
2022-08-28T17:02:55.457Z,22.14
2022-08-28T17:05:24.763Z,22.06
2022-08-28T17:07:52.017Z,22.00
2022-08-28T17:10:20.886Z,21.83
2022-08-28T17:12:47.534Z,21.88
2022-08-28T17:15:14.167Z,21.82
2022-08-28T17:17:41.385Z,21.76
2022-08-28T17:20:29.946Z,21.71
2022-08-28T17:22:56.724Z,21.53
2022-08-28T17:25:23.897Z,21.57
2022-08-28T17:27:50.542Z,21.54
2022-08-28T17:30:19.006Z,21.51
2022-08-28T17:32:46.111Z,21.34
2022-08-28T17:35:12.957Z,21.36
2022-08-28T17:37:40.766Z,21.38
2022-08-28T17:40:13.465Z,21.29
2022-08-28T17:42:40.635Z,21.15
2022-08-28T17:45:08.426Z,21.17
2022-08-28T17:47:34.983Z,21.29
2022-08-28T17:50:02.223Z,21.07
2022-08-28T17:52:29.510Z,21.14
2022-08-28T17:54:56.219Z,21.22
2022-08-28T17:57:24.255Z,21.02
2022-08-28T17:59:50.866Z,21.15
2022-08-28T18:02:17.796Z,21.15
2022-08-28T18:04:44.552Z,21.07
2022-08-28T18:07:11.369Z,21.03
2022-08-28T18:09:37.958Z,20.95
2022-08-28T18:12:06.380Z,21.01
2022-08-28T18:14:39.198Z,21.00
2022-08-28T18:17:05.805Z,20.97
2022-08-28T18:19:35.823Z,20.85
2022-08-28T18:22:02.525Z,20.92
2022-08-28T18:24:29.095Z,20.81
2022-08-28T18:26:58.832Z,20.90
2022-08-28T18:29:25.499Z,20.77
2022-08-28T18:31:52.423Z,20.85
2022-08-28T18:34:19.037Z,20.79
2022-08-28T18:36:45.765Z,20.79
2022-08-28T18:39:13.104Z,20.78
2022-08-28T18:41:43.920Z,20.76
2022-08-28T18:44:11.837Z,20.74
2022-08-28T18:46:38.570Z,20.66
2022-08-28T18:49:05.197Z,20.64
2022-08-28T18:51:32.682Z,20.60
2022-08-28T18:54:01.007Z,20.59
2022-08-28T18:56:30.848Z,20.57
2022-08-28T18:58:59.202Z,20.51
2022-08-28T19:01:25.969Z,20.37
2022-08-28T19:03:54.359Z,20.43
2022-08-28T19:06:21.211Z,20.45
2022-08-28T19:08:47.818Z,20.40
2022-08-28T19:11:14.639Z,20.28
2022-08-28T19:13:41.804Z,20.43
2022-08-28T19:16:08.831Z,20.40
2022-08-28T19:18:35.569Z,20.25
2022-08-28T19:21:15.858Z,20.27
2022-08-28T19:23:44.593Z,20.07
2022-08-28T19:26:24.553Z,19.78
2022-08-28T19:28:51.709Z,19.65
2022-08-28T19:31:18.618Z,19.66
2022-08-28T19:33:46.506Z,19.69
2022-08-28T19:36:13.733Z,19.64
2022-08-28T19:38:40.898Z,19.56
2022-08-28T19:41:09.465Z,19.59
2022-08-28T19:43:44.171Z,19.47
2022-08-28T19:46:18.442Z,19.40
2022-08-28T19:48:46.560Z,19.32
2022-08-28T19:51:18.243Z,19.31
2022-08-28T19:53:57.402Z,19.32
2022-08-28T19:56:27.328Z,19.37
2022-08-28T19:58:55.228Z,19.31
2022-08-28T20:01:22.016Z,19.26
2022-08-28T20:03:48.782Z,19.24
2022-08-28T20:06:15.439Z,19.18
2022-08-28T20:08:42.033Z,19.23
2022-08-28T20:11:09.723Z,19.08
2022-08-28T20:13:36.522Z,19.17
2022-08-28T20:16:05.238Z,19.14
2022-08-28T20:18:33.383Z,19.15
2022-08-28T20:21:00.211Z,19.08
2022-08-28T20:23:26.833Z,19.07
2022-08-28T20:25:53.505Z,18.94
2022-08-28T20:28:20.153Z,18.87
2022-08-28T20:30:47.071Z,18.85
2022-08-28T20:33:13.772Z,18.72
2022-08-28T20:35:40.483Z,18.59
2022-08-28T20:38:07.248Z,18.63
2022-08-28T20:40:33.956Z,18.63
2022-08-28T20:43:00.741Z,18.54
2022-08-28T20:45:28.186Z,18.45
2022-08-28T20:47:54.894Z,18.46
2022-08-28T20:50:21.477Z,18.53
2022-08-28T20:52:48.080Z,18.42
2022-08-28T20:55:14.892Z,18.45
2022-08-28T20:57:41.708Z,18.41
2022-08-28T21:00:10.264Z,18.33
2022-08-28T21:02:37.439Z,18.29
2022-08-28T21:05:04.864Z,18.30
2022-08-28T21:07:33.428Z,18.26
2022-08-28T21:10:07.065Z,18.31
2022-08-28T21:12:38.990Z,18.20
2022-08-28T21:15:11.158Z,18.12
2022-08-28T21:17:38.159Z,18.07
2022-08-28T21:20:09.317Z,18.05
2022-08-28T21:22:37.257Z,17.99
2022-08-28T21:25:06.116Z,18.02
2022-08-28T21:27:33.141Z,18.01
2022-08-28T21:30:00.340Z,18.31
2022-08-28T21:32:28.560Z,18.37
2022-08-28T21:34:55.354Z,18.52
2022-08-28T21:37:22.620Z,18.70
2022-08-28T21:39:49.182Z,18.71
2022-08-28T21:42:15.782Z,18.70
2022-08-28T21:44:48.363Z,18.69
2022-08-28T21:47:19.671Z,18.59
2022-08-28T21:49:49.527Z,18.56
2022-08-28T21:52:18.416Z,18.48
2022-08-28T21:54:45.024Z,18.35
2022-08-28T21:57:11.654Z,18.33
2022-08-28T21:59:38.963Z,18.23
2022-08-28T22:02:06.133Z,18.33
2022-08-28T22:04:33.265Z,18.43
2022-08-28T22:06:59.818Z,18.47
2022-08-28T22:09:26.601Z,18.49
2022-08-28T22:11:53.449Z,18.24
2022-08-28T22:14:20.066Z,18.41
2022-08-28T22:16:46.849Z,18.56
2022-08-28T22:19:13.533Z,18.76
2022-08-28T22:21:58.598Z,18.91
2022-08-28T22:24:25.217Z,18.92
2022-08-28T22:26:57.357Z,18.64
2022-08-28T22:29:25.011Z,18.37
2022-08-28T22:31:52.559Z,17.86
2022-08-28T22:34:19.291Z,17.61
2022-08-28T22:36:45.930Z,17.63
2022-08-28T22:39:12.549Z,17.66
2022-08-28T22:41:39.121Z,17.57
2022-08-28T22:44:07.038Z,17.54
2022-08-28T22:46:33.705Z,17.35
2022-08-28T22:49:00.366Z,17.14
2022-08-28T22:51:27.027Z,17.23
2022-08-28T22:53:54.350Z,17.10
2022-08-28T22:56:21.313Z,17.21
2022-08-28T22:58:48.266Z,17.25
2022-08-28T23:01:19.290Z,17.26
2022-08-28T23:03:46.217Z,17.24
2022-08-28T23:06:13.892Z,17.21
2022-08-28T23:08:40.497Z,17.29
2022-08-28T23:11:07.077Z,17.34
2022-08-28T23:13:34.081Z,17.43
2022-08-28T23:16:01.378Z,17.50
2022-08-28T23:18:29.045Z,17.48
2022-08-28T23:20:56.290Z,17.45
2022-08-28T23:23:23.458Z,17.32
2022-08-28T23:25:50.517Z,17.37
2022-08-28T23:28:17.716Z,17.34
2022-08-28T23:30:48.535Z,17.36
2022-08-28T23:33:23.753Z,17.31
2022-08-28T23:35:51.960Z,17.27
2022-08-28T23:38:18.742Z,17.19
2022-08-28T23:40:46.245Z,17.26
2022-08-28T23:43:12.849Z,17.24
2022-08-28T23:45:41.552Z,17.32
2022-08-28T23:48:08.559Z,17.40
2022-08-28T23:50:35.868Z,17.33
2022-08-28T23:53:04.271Z,17.39
2022-08-28T23:55:33.374Z,17.37
2022-08-28T23:58:00.437Z,17.35
